NCAR-RAP Real-Time Weather Data

Output produced by METARs form (12 May 2021  11:02 UTC)
found at http://weather.rap.ucar.edu/surface/
 
KBGD 121051Z AUTO 03006KT 10SM SCT044 BKN110 09/06 A3034 RMK AO2 SLP263 T00940061
KBGD 120951Z AUTO 02004KT 10SM OVC045 09/06 A3034 RMK AO2 SLP263 T00940061
KBGD 120851Z AUTO 03005KT 10SM SCT046 09/06 A3033 RMK AO2 SLP261 T00940056 55000
KBGD 120751Z AUTO 02007KT 10SM SCT041 10/06 A3032 RMK AO2 SLP257 T01000056
KBGD 120651Z AUTO 02006KT 10SM OVC042 11/05 A3032 RMK AO2 SLP258 T01060050
KBGD 120551Z AUTO 02005KT 10SM OVC043 11/05 A3033 RMK AO2 SLP261 T01110050 10111 20106 401220089 51019
KBGD 120451Z AUTO 02005KT 10SM OVC043 11/05 A3032 RMK AO2 SLP259 T01110050
KBGD 120351Z AUTO 03004KT 10SM OVC042 11/05 A3031 RMK AO2 SLP255 T01110050
KBGD 120251Z AUTO 04008KT 10SM OVC041 11/05 A3027 RMK AO2 SLP240 T01110050 53021
KBGD 120206Z AUTO 05009KT 10SM FEW026 OVC036 11/04 A3024 RMK AO2 T01110044
KBGD 120151Z AUTO 05009KT 10SM BKN028 OVC034 11/04 A3023 RMK AO2 SLP229 T01110044
KBGD 120134Z AUTO 03010KT 10SM OVC028 11/05 A3023 RMK AO2 T01110050
KBGD 120119Z AUTO 05010KT 10SM OVC030 11/04 A3022 RMK AO2 T01110044
KBGD 120105Z AUTO 05011KT 10SM OVC028 11/04 A3022 RMK AO2 T01110044
KBGD 120058Z AUTO 05012KT 10SM SCT023 OVC030 11/05 A3021 RMK AO2 T01110050
KBGD 120051Z AUTO 05012KT 10SM FEW023 OVC028 11/04 A3021 RMK AO2 SLP222 T01110044
KBGD 112351Z AUTO 04013KT 10SM OVC024 11/06 A3020 RMK AO2 SLP218 T01110056 10122 20094 53006
KBGD 112251Z AUTO 06011KT 10SM OVC024 12/04 A3018 RMK AO2 SLP211 T01170044
KBGD 112151Z AUTO 05009KT 10SM OVC019 11/05 A3018 RMK AO2 SLP208 T01110050
KBGD 112051Z AUTO 05009KT 10SM OVC016 11/05 A3018 RMK AO2 SLP209 T01110050 55001
KBGD 111951Z AUTO 04013G16KT 10SM OVC017 11/04 A3017 RMK AO2 SLP206 T01110044
KBGD 111907Z AUTO 04013KT 10SM OVC015 11/05 A3017 RMK AO2 T01060050